sensor_id;sensor_type;location;lat;lon;timestamp;temperature;humidity
814;DHT22;389;48.710;9.392;2024-03-29T00:00:36;4.70;98.80
814;DHT22;389;48.710;9.392;2024-03-29T00:03:02;4.70;98.90
814;DHT22;389;48.710;9.392;2024-03-29T00:05:28;4.80;99.00
814;DHT22;389;48.710;9.392;2024-03-29T00:07:53;4.90;99.00
814;DHT22;389;48.710;9.392;2024-03-29T00:10:19;4.90;99.00
814;DHT22;389;48.710;9.392;2024-03-29T00:12:44;5.00;98.90
814;DHT22;389;48.710;9.392;2024-03-29T00:15:10;5.10;98.70
814;DHT22;389;48.710;9.392;2024-03-29T00:17:35;5.30;98.20
814;DHT22;389;48.710;9.392;2024-03-29T00:20:01;5.40;97.70
814;DHT22;389;48.710;9.392;2024-03-29T02:16:15;8.90;85.30
814;DHT22;389;48.710;9.392;2024-03-29T02:18:41;9.00;85.50
814;DHT22;389;48.710;9.392;2024-03-29T02:21:07;8.80;85.30
814;DHT22;389;48.710;9.392;2024-03-29T02:23:36;8.90;85.50
814;DHT22;389;48.710;9.392;2024-03-29T02:26:03;8.90;85.60
814;DHT22;389;48.710;9.392;2024-03-29T03:02:08;9.10;84.40
814;DHT22;389;48.710;9.392;2024-03-29T03:23:04;8.90;84.20
814;DHT22;389;48.710;9.392;2024-03-29T03:25:29;9.10;83.90
814;DHT22;389;48.710;9.392;2024-03-29T03:27:55;9.10;84.70
814;DHT22;389;48.710;9.392;2024-03-29T03:30:21;9.10;85.50
814;DHT22;389;48.710;9.392;2024-03-29T03:32:47;9.10;86.00
814;DHT22;389;48.710;9.392;2024-03-29T03:55:48;8.90;90.10
814;DHT22;389;48.710;9.392;2024-03-29T03:58:14;8.90;90.10
814;DHT22;389;48.710;9.392;2024-03-29T04:00:40;9.00;90.40
814;DHT22;389;48.710;9.392;2024-03-29T04:03:05;8.80;90.90
814;DHT22;389;48.710;9.392;2024-03-29T04:05:31;8.80;91.00
814;DHT22;389;48.710;9.392;2024-03-29T04:13:44;8.70;91.10
814;DHT22;389;48.710;9.392;2024-03-29T04:24:11;8.70;91.30
814;DHT22;389;48.710;9.392;2024-03-29T05:09:11;8.50;91.60
814;DHT22;389;48.710;9.392;2024-03-29T05:11:39;8.80;91.80
814;DHT22;389;48.710;9.392;2024-03-29T05:14:05;8.80;91.70
814;DHT22;389;48.710;9.392;2024-03-29T05:16:31;8.90;91.70
814;DHT22;389;48.710;9.392;2024-03-29T05:18:57;8.80;91.50
814;DHT22;389;48.710;9.392;2024-03-29T05:21:25;9.00;91.40
814;DHT22;389;48.710;9.392;2024-03-29T05:23:51;8.90;90.90
814;DHT22;389;48.710;9.392;2024-03-29T05:26:17;8.90;90.60
814;DHT22;389;48.710;9.392;2024-03-29T05:28:43;9.00;90.50
814;DHT22;389;48.710;9.392;2024-03-29T05:31:13;9.10;90.00
814;DHT22;389;48.710;9.392;2024-03-29T05:33:42;9.00;90.10
814;DHT22;389;48.710;9.392;2024-03-29T05:36:07;9.10;90.30
814;DHT22;389;48.710;9.392;2024-03-29T05:38:36;9.10;90.30
814;DHT22;389;48.710;9.392;2024-03-29T05:41:02;9.20;90.50
814;DHT22;389;48.710;9.392;2024-03-29T05:43:27;9.20;90.70
814;DHT22;389;48.710;9.392;2024-03-29T05:45:53;9.40;90.80
814;DHT22;389;48.710;9.392;2024-03-29T05:48:19;9.40;90.80
814;DHT22;389;48.710;9.392;2024-03-29T05:50:44;9.40;90.80
814;DHT22;389;48.710;9.392;2024-03-29T05:53:16;9.40;90.70
814;DHT22;389;48.710;9.392;2024-03-29T05:55:44;9.60;90.30
814;DHT22;389;48.710;9.392;2024-03-29T05:58:09;9.50;86.80
814;DHT22;389;48.710;9.392;2024-03-29T06:00:35;9.70;82.90
814;DHT22;389;48.710;9.392;2024-03-29T06:03:01;9.80;81.80
814;DHT22;389;48.710;9.392;2024-03-29T06:05:29;9.90;81.50
814;DHT22;389;48.710;9.392;2024-03-29T06:07:55;10.10;80.10
814;DHT22;389;48.710;9.392;2024-03-29T06:10:21;10.30;79.50
814;DHT22;389;48.710;9.392;2024-03-29T06:12:47;10.30;79.10
814;DHT22;389;48.710;9.392;2024-03-29T06:15:15;10.50;78.60
814;DHT22;389;48.710;9.392;2024-03-29T06:17:59;10.50;78.10
814;DHT22;389;48.710;9.392;2024-03-29T06:20:25;10.60;77.30
814;DHT22;389;48.710;9.392;2024-03-29T06:22:51;10.80;77.50
814;DHT22;389;48.710;9.392;2024-03-29T06:25:16;10.90;77.10
814;DHT22;389;48.710;9.392;2024-03-29T06:27:45;11.00;77.10
814;DHT22;389;48.710;9.392;2024-03-29T06:30:14;11.10;76.90
814;DHT22;389;48.710;9.392;2024-03-29T06:32:41;11.20;76.40
814;DHT22;389;48.710;9.392;2024-03-29T06:35:07;11.30;76.00
814;DHT22;389;48.710;9.392;2024-03-29T06:37:33;11.40;75.30
814;DHT22;389;48.710;9.392;2024-03-29T06:39:59;11.50;75.70
814;DHT22;389;48.710;9.392;2024-03-29T06:42:25;11.50;74.70
814;DHT22;389;48.710;9.392;2024-03-29T06:44:50;11.60;74.70
814;DHT22;389;48.710;9.392;2024-03-29T06:47:17;11.70;74.70
814;DHT22;389;48.710;9.392;2024-03-29T06:49:43;11.80;74.50
814;DHT22;389;48.710;9.392;2024-03-29T06:52:09;11.80;74.00
814;DHT22;389;48.710;9.392;2024-03-29T06:54:34;12.00;74.10
814;DHT22;389;48.710;9.392;2024-03-29T06:57:00;12.10;73.80
814;DHT22;389;48.710;9.392;2024-03-29T06:59:26;12.20;73.30
814;DHT22;389;48.710;9.392;2024-03-29T07:01:53;12.30;72.50
814;DHT22;389;48.710;9.392;2024-03-29T07:04:20;12.40;72.80
814;DHT22;389;48.710;9.392;2024-03-29T07:06:49;12.50;72.60
814;DHT22;389;48.710;9.392;2024-03-29T07:09:19;12.60;72.70
814;DHT22;389;48.710;9.392;2024-03-29T07:11:49;12.70;72.60
814;DHT22;389;48.710;9.392;2024-03-29T07:14:15;12.70;71.30
814;DHT22;389;48.710;9.392;2024-03-29T07:16:42;12.90;71.40
814;DHT22;389;48.710;9.392;2024-03-29T07:19:08;12.90;71.50
814;DHT22;389;48.710;9.392;2024-03-29T07:21:34;13.00;71.50
814;DHT22;389;48.710;9.392;2024-03-29T07:24:01;13.10;71.40
814;DHT22;389;48.710;9.392;2024-03-29T07:26:30;13.20;71.60
814;DHT22;389;48.710;9.392;2024-03-29T07:29:01;13.30;72.40
814;DHT22;389;48.710;9.392;2024-03-29T07:34:43;13.30;71.50
814;DHT22;389;48.710;9.392;2024-03-29T07:37:16;13.30;72.50
814;DHT22;389;48.710;9.392;2024-03-29T07:39:43;13.30;74.00
814;DHT22;389;48.710;9.392;2024-03-29T07:42:16;13.40;75.50
814;DHT22;389;48.710;9.392;2024-03-29T07:44:45;13.00;77.20
814;DHT22;389;48.710;9.392;2024-03-29T07:47:14;13.10;80.70
814;DHT22;389;48.710;9.392;2024-03-29T07:49:43;13.00;81.50
814;DHT22;389;48.710;9.392;2024-03-29T07:52:14;12.90;83.40
814;DHT22;389;48.710;9.392;2024-03-29T07:55:14;12.90;85.60
814;DHT22;389;48.710;9.392;2024-03-29T07:57:57;12.80;88.10
814;DHT22;389;48.710;9.392;2024-03-29T08:00:31;12.70;88.90
814;DHT22;389;48.710;9.392;2024-03-29T08:03:02;12.70;89.10
814;DHT22;389;48.710;9.392;2024-03-29T08:05:36;12.60;88.70
814;DHT22;389;48.710;9.392;2024-03-29T08:08:06;12.60;89.40
814;DHT22;389;48.710;9.392;2024-03-29T08:10:32;12.60;90.20
814;DHT22;389;48.710;9.392;2024-03-29T08:13:03;12.60;90.60
814;DHT22;389;48.710;9.392;2024-03-29T08:15:46;12.60;90.80
814;DHT22;389;48.710;9.392;2024-03-29T08:18:19;12.70;91.40
814;DHT22;389;48.710;9.392;2024-03-29T08:24:34;12.80;91.50
814;DHT22;389;48.710;9.392;2024-03-29T08:30:18;12.70;90.40
814;DHT22;389;48.710;9.392;2024-03-29T08:33:03;12.70;90.60
814;DHT22;389;48.710;9.392;2024-03-29T08:35:52;12.80;90.70
814;DHT22;389;48.710;9.392;2024-03-29T08:38:33;12.80;91.20
814;DHT22;389;48.710;9.392;2024-03-29T08:41:01;12.90;91.70
814;DHT22;389;48.710;9.392;2024-03-29T08:44:57;13.00;92.20
814;DHT22;389;48.710;9.392;2024-03-29T08:47:26;12.90;92.60
814;DHT22;389;48.710;9.392;2024-03-29T08:53:08;13.00;91.00
814;DHT22;389;48.710;9.392;2024-03-29T08:55:47;13.10;92.10
814;DHT22;389;48.710;9.392;2024-03-29T08:58:16;13.30;92.90
814;DHT22;389;48.710;9.392;2024-03-29T09:00:51;13.30;93.30
814;DHT22;389;48.710;9.392;2024-03-29T09:03:26;13.40;93.80
814;DHT22;389;48.710;9.392;2024-03-29T09:05:52;13.60;94.00
814;DHT22;389;48.710;9.392;2024-03-29T09:08:18;13.80;94.10
814;DHT22;389;48.710;9.392;2024-03-29T09:10:47;13.80;94.10
814;DHT22;389;48.710;9.392;2024-03-29T09:13:13;13.90;94.20
814;DHT22;389;48.710;9.392;2024-03-29T09:16:02;13.90;93.70
814;DHT22;389;48.710;9.392;2024-03-29T09:18:31;14.00;93.30
814;DHT22;389;48.710;9.392;2024-03-29T09:24:45;14.00;92.40
814;DHT22;389;48.710;9.392;2024-03-29T09:27:10;14.10;92.90
814;DHT22;389;48.710;9.392;2024-03-29T09:29:36;14.20;92.60
814;DHT22;389;48.710;9.392;2024-03-29T09:38:41;14.20;92.80
814;DHT22;389;48.710;9.392;2024-03-29T09:41:17;14.20;92.90
814;DHT22;389;48.710;9.392;2024-03-29T09:43:50;14.20;92.90
814;DHT22;389;48.710;9.392;2024-03-29T09:46:20;14.30;92.70
814;DHT22;389;48.710;9.392;2024-03-29T09:48:47;14.30;92.60
814;DHT22;389;48.710;9.392;2024-03-29T09:51:18;14.30;92.60
814;DHT22;389;48.710;9.392;2024-03-29T09:53:45;14.20;91.90
814;DHT22;389;48.710;9.392;2024-03-29T09:56:12;14.20;92.10
814;DHT22;389;48.710;9.392;2024-03-29T09:58:38;14.30;92.40
814;DHT22;389;48.710;9.392;2024-03-29T10:01:05;14.40;92.60
814;DHT22;389;48.710;9.392;2024-03-29T10:03:35;14.40;92.00
814;DHT22;389;48.710;9.392;2024-03-29T10:06:02;14.60;92.20
814;DHT22;389;48.710;9.392;2024-03-29T10:08:30;14.80;92.10
814;DHT22;389;48.710;9.392;2024-03-29T10:10:59;14.90;91.90
814;DHT22;389;48.710;9.392;2024-03-29T10:13:25;15.20;91.10
814;DHT22;389;48.710;9.392;2024-03-29T10:15:52;15.30;90.10
814;DHT22;389;48.710;9.392;2024-03-29T10:18:21;15.40;88.90
814;DHT22;389;48.710;9.392;2024-03-29T10:20:47;15.60;88.50
814;DHT22;389;48.710;9.392;2024-03-29T10:23:13;15.70;88.20
814;DHT22;389;48.710;9.392;2024-03-29T10:25:57;15.80;87.60
814;DHT22;389;48.710;9.392;2024-03-29T10:28:47;16.00;87.50
814;DHT22;389;48.710;9.392;2024-03-29T10:31:34;16.20;87.70
814;DHT22;389;48.710;9.392;2024-03-29T10:34:03;16.30;86.20
814;DHT22;389;48.710;9.392;2024-03-29T10:39:57;16.70;87.80
814;DHT22;389;48.710;9.392;2024-03-29T10:42:24;16.80;89.40
814;DHT22;389;48.710;9.392;2024-03-29T10:51:20;16.70;87.70
814;DHT22;389;48.710;9.392;2024-03-29T10:54:08;16.70;87.50
814;DHT22;389;48.710;9.392;2024-03-29T11:07:15;16.30;88.20
814;DHT22;389;48.710;9.392;2024-03-29T11:10:30;16.30;88.50
814;DHT22;389;48.710;9.392;2024-03-29T11:13:09;16.20;87.00
814;DHT22;389;48.710;9.392;2024-03-29T11:19:04;16.20;86.00
814;DHT22;389;48.710;9.392;2024-03-29T11:21:53;16.40;86.90
814;DHT22;389;48.710;9.392;2024-03-29T11:24:57;16.30;86.20
814;DHT22;389;48.710;9.392;2024-03-29T11:28:14;16.60;85.70
814;DHT22;389;48.710;9.392;2024-03-29T11:31:37;16.70;86.40
814;DHT22;389;48.710;9.392;2024-03-29T11:37:30;16.80;84.60
814;DHT22;389;48.710;9.392;2024-03-29T11:43:20;17.30;83.90
814;DHT22;389;48.710;9.392;2024-03-29T11:45:50;17.40;82.90
814;DHT22;389;48.710;9.392;2024-03-29T11:48:26;17.50;82.10
814;DHT22;389;48.710;9.392;2024-03-29T11:51:10;17.60;82.50
814;DHT22;389;48.710;9.392;2024-03-29T12:00:46;17.60;83.00
814;DHT22;389;48.710;9.392;2024-03-29T12:03:16;17.60;83.30
814;DHT22;389;48.710;9.392;2024-03-29T12:15:54;17.90;78.60
814;DHT22;389;48.710;9.392;2024-03-29T12:18:21;18.10;78.90
814;DHT22;389;48.710;9.392;2024-03-29T12:20:48;18.40;78.50
814;DHT22;389;48.710;9.392;2024-03-29T12:23:16;18.60;77.50
814;DHT22;389;48.710;9.392;2024-03-29T12:25:42;18.90;77.70
814;DHT22;389;48.710;9.392;2024-03-29T12:28:10;19.00;76.90
814;DHT22;389;48.710;9.392;2024-03-29T12:30:35;19.10;76.90
814;DHT22;389;48.710;9.392;2024-03-29T12:35:32;19.20;74.80
814;DHT22;389;48.710;9.392;2024-03-29T12:38:02;19.20;75.00
814;DHT22;389;48.710;9.392;2024-03-29T12:40:30;19.10;75.20
814;DHT22;389;48.710;9.392;2024-03-29T12:43:03;19.20;75.30
814;DHT22;389;48.710;9.392;2024-03-29T12:45:29;19.20;73.30
814;DHT22;389;48.710;9.392;2024-03-29T12:47:55;19.30;73.40
814;DHT22;389;48.710;9.392;2024-03-29T12:50:33;19.40;73.00
814;DHT22;389;48.710;9.392;2024-03-29T12:53:00;19.50;73.40
814;DHT22;389;48.710;9.392;2024-03-29T12:55:27;19.70;73.30
814;DHT22;389;48.710;9.392;2024-03-29T12:58:05;19.90;73.60
814;DHT22;389;48.710;9.392;2024-03-29T13:00:35;20.10;72.50
814;DHT22;389;48.710;9.392;2024-03-29T13:03:00;20.30;72.00
814;DHT22;389;48.710;9.392;2024-03-29T13:05:26;20.50;72.10
814;DHT22;389;48.710;9.392;2024-03-29T13:07:53;20.40;69.20
814;DHT22;389;48.710;9.392;2024-03-29T13:10:19;20.30;67.90
814;DHT22;389;48.710;9.392;2024-03-29T13:12:48;20.20;68.90
814;DHT22;389;48.710;9.392;2024-03-29T13:15:21;20.20;71.00
814;DHT22;389;48.710;9.392;2024-03-29T13:17:49;20.30;72.10
814;DHT22;389;48.710;9.392;2024-03-29T13:20:16;20.30;72.20
814;DHT22;389;48.710;9.392;2024-03-29T13:22:42;20.50;72.30
814;DHT22;389;48.710;9.392;2024-03-29T13:25:10;20.50;71.70
814;DHT22;389;48.710;9.392;2024-03-29T13:27:38;20.60;71.80
814;DHT22;389;48.710;9.392;2024-03-29T13:30:08;20.70;71.30
814;DHT22;389;48.710;9.392;2024-03-29T13:32:41;20.60;70.50
814;DHT22;389;48.710;9.392;2024-03-29T13:35:08;20.50;70.60
814;DHT22;389;48.710;9.392;2024-03-29T13:37:41;20.40;70.20
814;DHT22;389;48.710;9.392;2024-03-29T13:40:15;20.40;70.30
814;DHT22;389;48.710;9.392;2024-03-29T13:42:41;20.20;69.90
814;DHT22;389;48.710;9.392;2024-03-29T13:45:08;20.10;69.80
814;DHT22;389;48.710;9.392;2024-03-29T13:47:37;20.10;70.60
814;DHT22;389;48.710;9.392;2024-03-29T13:50:03;20.10;71.00
814;DHT22;389;48.710;9.392;2024-03-29T13:52:29;20.10;71.30
814;DHT22;389;48.710;9.392;2024-03-29T13:54:55;20.20;72.00
814;DHT22;389;48.710;9.392;2024-03-29T13:57:21;20.20;71.00
814;DHT22;389;48.710;9.392;2024-03-29T13:59:47;20.20;71.00
814;DHT22;389;48.710;9.392;2024-03-29T14:02:15;20.10;71.40
814;DHT22;389;48.710;9.392;2024-03-29T14:04:45;20.10;72.00
814;DHT22;389;48.710;9.392;2024-03-29T14:07:12;20.10;71.30
814;DHT22;389;48.710;9.392;2024-03-29T14:09:39;20.10;70.90
814;DHT22;389;48.710;9.392;2024-03-29T14:12:05;20.10;71.00
814;DHT22;389;48.710;9.392;2024-03-29T14:14:31;20.20;71.50
814;DHT22;389;48.710;9.392;2024-03-29T14:16:57;20.20;71.00
814;DHT22;389;48.710;9.392;2024-03-29T14:19:23;20.20;70.90
814;DHT22;389;48.710;9.392;2024-03-29T14:21:49;20.20;70.50
814;DHT22;389;48.710;9.392;2024-03-29T14:24:15;20.30;71.50
814;DHT22;389;48.710;9.392;2024-03-29T14:26:43;20.30;71.00
814;DHT22;389;48.710;9.392;2024-03-29T14:29:09;20.40;71.10
814;DHT22;389;48.710;9.392;2024-03-29T14:31:37;20.50;71.30
814;DHT22;389;48.710;9.392;2024-03-29T14:34:03;20.50;70.60
814;DHT22;389;48.710;9.392;2024-03-29T14:36:28;20.60;70.20
814;DHT22;389;48.710;9.392;2024-03-29T14:38:57;20.60;70.00
814;DHT22;389;48.710;9.392;2024-03-29T14:41:25;20.70;69.40
814;DHT22;389;48.710;9.392;2024-03-29T14:43:52;20.70;67.90
814;DHT22;389;48.710;9.392;2024-03-29T14:46:18;20.80;67.80
814;DHT22;389;48.710;9.392;2024-03-29T14:48:46;20.80;66.70
814;DHT22;389;48.710;9.392;2024-03-29T14:51:12;21.00;67.60
814;DHT22;389;48.710;9.392;2024-03-29T14:53:37;21.00;68.20
814;DHT22;389;48.710;9.392;2024-03-29T14:56:03;21.10;67.80
814;DHT22;389;48.710;9.392;2024-03-29T14:58:29;21.10;67.50
814;DHT22;389;48.710;9.392;2024-03-29T15:00:56;21.10;68.00
814;DHT22;389;48.710;9.392;2024-03-29T15:03:22;21.10;67.80
814;DHT22;389;48.710;9.392;2024-03-29T15:05:49;21.10;68.10
814;DHT22;389;48.710;9.392;2024-03-29T15:08:15;21.10;67.40
814;DHT22;389;48.710;9.392;2024-03-29T15:10:45;21.00;67.10
814;DHT22;389;48.710;9.392;2024-03-29T15:13:11;21.00;67.90
814;DHT22;389;48.710;9.392;2024-03-29T15:15:37;21.00;67.50
814;DHT22;389;48.710;9.392;2024-03-29T15:18:04;21.00;67.60
814;DHT22;389;48.710;9.392;2024-03-29T15:20:31;21.00;66.80
814;DHT22;389;48.710;9.392;2024-03-29T15:22:57;20.90;67.10
814;DHT22;389;48.710;9.392;2024-03-29T15:25:24;20.90;66.50
814;DHT22;389;48.710;9.392;2024-03-29T15:27:49;20.80;66.40
814;DHT22;389;48.710;9.392;2024-03-29T15:30:33;20.80;66.90
814;DHT22;389;48.710;9.392;2024-03-29T15:33:01;20.70;66.30
814;DHT22;389;48.710;9.392;2024-03-29T15:35:27;20.70;66.60
814;DHT22;389;48.710;9.392;2024-03-29T15:37:52;20.70;66.30
814;DHT22;389;48.710;9.392;2024-03-29T15:40:18;20.70;66.50
814;DHT22;389;48.710;9.392;2024-03-29T15:42:43;20.60;66.00
814;DHT22;389;48.710;9.392;2024-03-29T15:45:09;20.60;65.60
814;DHT22;389;48.710;9.392;2024-03-29T15:47:35;20.50;65.70
814;DHT22;389;48.710;9.392;2024-03-29T15:50:01;20.50;66.70
814;DHT22;389;48.710;9.392;2024-03-29T15:52:26;20.50;66.40
814;DHT22;389;48.710;9.392;2024-03-29T15:54:52;20.50;66.10
814;DHT22;389;48.710;9.392;2024-03-29T15:57:20;20.50;66.00
814;DHT22;389;48.710;9.392;2024-03-29T15:59:45;20.40;66.00
814;DHT22;389;48.710;9.392;2024-03-29T16:02:13;20.40;64.70
814;DHT22;389;48.710;9.392;2024-03-29T16:04:39;20.30;64.80
814;DHT22;389;48.710;9.392;2024-03-29T16:07:04;20.20;65.40
814;DHT22;389;48.710;9.392;2024-03-29T16:09:30;20.20;65.50
814;DHT22;389;48.710;9.392;2024-03-29T16:11:56;20.20;65.50
814;DHT22;389;48.710;9.392;2024-03-29T16:14:21;20.20;65.50
814;DHT22;389;48.710;9.392;2024-03-29T16:16:48;20.10;64.70
814;DHT22;389;48.710;9.392;2024-03-29T16:19:17;20.00;64.20
814;DHT22;389;48.710;9.392;2024-03-29T16:21:42;20.00;64.30
814;DHT22;389;48.710;9.392;2024-03-29T16:24:08;19.90;64.70
814;DHT22;389;48.710;9.392;2024-03-29T16:26:33;19.80;64.40
814;DHT22;389;48.710;9.392;2024-03-29T16:28:59;19.60;64.90
814;DHT22;389;48.710;9.392;2024-03-29T16:31:31;19.50;65.30
814;DHT22;389;48.710;9.392;2024-03-29T16:33:57;19.30;65.50
814;DHT22;389;48.710;9.392;2024-03-29T16:36:23;19.20;66.30
814;DHT22;389;48.710;9.392;2024-03-29T16:38:48;19.10;66.50
814;DHT22;389;48.710;9.392;2024-03-29T16:41:14;19.00;67.00
814;DHT22;389;48.710;9.392;2024-03-29T16:43:39;19.00;67.50
814;DHT22;389;48.710;9.392;2024-03-29T16:46:05;19.00;68.40
814;DHT22;389;48.710;9.392;2024-03-29T16:48:31;18.80;69.20
814;DHT22;389;48.710;9.392;2024-03-29T16:50:56;18.70;70.10
814;DHT22;389;48.710;9.392;2024-03-29T16:53:22;18.60;70.50
814;DHT22;389;48.710;9.392;2024-03-29T16:55:48;18.50;71.10
814;DHT22;389;48.710;9.392;2024-03-29T16:58:14;18.40;71.70
814;DHT22;389;48.710;9.392;2024-03-29T17:00:40;18.30;72.10
814;DHT22;389;48.710;9.392;2024-03-29T17:03:05;18.20;72.60
814;DHT22;389;48.710;9.392;2024-03-29T17:05:31;18.10;72.90
814;DHT22;389;48.710;9.392;2024-03-29T17:07:57;18.00;73.10
814;DHT22;389;48.710;9.392;2024-03-29T17:10:22;18.00;73.60
814;DHT22;389;48.710;9.392;2024-03-29T17:12:48;17.90;73.90
814;DHT22;389;48.710;9.392;2024-03-29T17:15:13;17.80;74.50
814;DHT22;389;48.710;9.392;2024-03-29T17:17:39;17.80;74.90
814;DHT22;389;48.710;9.392;2024-03-29T17:20:05;17.80;75.40
814;DHT22;389;48.710;9.392;2024-03-29T17:22:31;17.60;75.40
814;DHT22;389;48.710;9.392;2024-03-29T17:24:57;17.50;75.80
814;DHT22;389;48.710;9.392;2024-03-29T17:27:24;17.50;76.30
814;DHT22;389;48.710;9.392;2024-03-29T17:29:50;17.30;77.10
814;DHT22;389;48.710;9.392;2024-03-29T17:32:17;17.20;77.50
814;DHT22;389;48.710;9.392;2024-03-29T17:34:44;17.10;77.80
814;DHT22;389;48.710;9.392;2024-03-29T17:37:10;17.00;77.80
814;DHT22;389;48.710;9.392;2024-03-29T17:39:35;16.90;78.10
814;DHT22;389;48.710;9.392;2024-03-29T17:42:01;16.80;79.00
814;DHT22;389;48.710;9.392;2024-03-29T17:44:28;16.70;79.60
814;DHT22;389;48.710;9.392;2024-03-29T17:46:55;16.60;79.90
814;DHT22;389;48.710;9.392;2024-03-29T17:49:20;16.40;80.50
814;DHT22;389;48.710;9.392;2024-03-29T17:51:46;16.30;80.90
814;DHT22;389;48.710;9.392;2024-03-29T17:54:12;16.20;81.40
814;DHT22;389;48.710;9.392;2024-03-29T17:56:39;16.10;81.60
814;DHT22;389;48.710;9.392;2024-03-29T17:59:05;16.00;82.10
814;DHT22;389;48.710;9.392;2024-03-29T18:01:30;15.90;82.50
814;DHT22;389;48.710;9.392;2024-03-29T18:03:56;15.90;82.60
814;DHT22;389;48.710;9.392;2024-03-29T18:06:21;15.80;83.10
814;DHT22;389;48.710;9.392;2024-03-29T18:08:47;15.80;83.20
814;DHT22;389;48.710;9.392;2024-03-29T18:11:13;15.70;83.30
814;DHT22;389;48.710;9.392;2024-03-29T18:13:43;15.60;83.30
814;DHT22;389;48.710;9.392;2024-03-29T18:16:09;15.60;83.60
814;DHT22;389;48.710;9.392;2024-03-29T18:18:38;15.50;84.40
814;DHT22;389;48.710;9.392;2024-03-29T18:21:03;15.40;84.50
814;DHT22;389;48.710;9.392;2024-03-29T18:23:29;15.40;84.80
814;DHT22;389;48.710;9.392;2024-03-29T18:25:55;15.30;85.20
814;DHT22;389;48.710;9.392;2024-03-29T18:28:23;15.30;85.40
814;DHT22;389;48.710;9.392;2024-03-29T18:30:54;15.20;85.50
814;DHT22;389;48.710;9.392;2024-03-29T18:33:26;15.10;85.80
814;DHT22;389;48.710;9.392;2024-03-29T18:35:52;15.00;86.60
814;DHT22;389;48.710;9.392;2024-03-29T18:38:24;14.90;86.90
814;DHT22;389;48.710;9.392;2024-03-29T18:40:51;14.90;87.40
814;DHT22;389;48.710;9.392;2024-03-29T18:43:16;14.80;88.10
814;DHT22;389;48.710;9.392;2024-03-29T18:45:42;14.70;88.70
814;DHT22;389;48.710;9.392;2024-03-29T18:48:08;14.60;89.80
814;DHT22;389;48.710;9.392;2024-03-29T18:50:34;14.50;89.80
814;DHT22;389;48.710;9.392;2024-03-29T18:53:02;14.50;90.10
814;DHT22;389;48.710;9.392;2024-03-29T18:55:28;14.40;90.10
814;DHT22;389;48.710;9.392;2024-03-29T18:57:53;14.40;90.60
814;DHT22;389;48.710;9.392;2024-03-29T19:00:20;14.30;90.50
814;DHT22;389;48.710;9.392;2024-03-29T19:02:46;14.20;90.70
814;DHT22;389;48.710;9.392;2024-03-29T19:05:11;14.10;90.80
814;DHT22;389;48.710;9.392;2024-03-29T19:07:37;14.10;91.00
814;DHT22;389;48.710;9.392;2024-03-29T19:10:03;14.00;91.30
814;DHT22;389;48.710;9.392;2024-03-29T19:12:28;13.90;91.50
814;DHT22;389;48.710;9.392;2024-03-29T19:14:54;13.90;91.60
814;DHT22;389;48.710;9.392;2024-03-29T19:17:19;13.90;91.80
814;DHT22;389;48.710;9.392;2024-03-29T19:19:45;13.80;91.90
814;DHT22;389;48.710;9.392;2024-03-29T19:22:11;13.80;91.90
814;DHT22;389;48.710;9.392;2024-03-29T19:24:36;13.70;92.00
814;DHT22;389;48.710;9.392;2024-03-29T19:27:03;13.70;92.20
814;DHT22;389;48.710;9.392;2024-03-29T19:29:29;13.60;92.30
814;DHT22;389;48.710;9.392;2024-03-29T19:31:55;13.60;92.40
814;DHT22;389;48.710;9.392;2024-03-29T19:34:21;13.50;92.40
814;DHT22;389;48.710;9.392;2024-03-29T19:36:48;13.40;92.70
814;DHT22;389;48.710;9.392;2024-03-29T19:39:20;13.40;93.10
814;DHT22;389;48.710;9.392;2024-03-29T19:41:46;13.30;93.20
814;DHT22;389;48.710;9.392;2024-03-29T19:44:12;13.30;93.30
814;DHT22;389;48.710;9.392;2024-03-29T19:46:38;13.20;93.50
814;DHT22;389;48.710;9.392;2024-03-29T19:49:04;13.20;93.60
814;DHT22;389;48.710;9.392;2024-03-29T19:51:29;13.30;93.70
814;DHT22;389;48.710;9.392;2024-03-29T19:53:55;13.10;93.70
814;DHT22;389;48.710;9.392;2024-03-29T19:56:20;13.00;94.30
814;DHT22;389;48.710;9.392;2024-03-29T19:58:51;12.90;94.70
814;DHT22;389;48.710;9.392;2024-03-29T20:01:17;12.90;94.70
814;DHT22;389;48.710;9.392;2024-03-29T20:03:43;12.90;94.70
814;DHT22;389;48.710;9.392;2024-03-29T20:06:09;12.90;94.70
814;DHT22;389;48.710;9.392;2024-03-29T20:08:34;12.90;94.70
814;DHT22;389;48.710;9.392;2024-03-29T20:11:00;12.90;94.70
814;DHT22;389;48.710;9.392;2024-03-29T20:13:26;12.90;94.80
814;DHT22;389;48.710;9.392;2024-03-29T20:15:52;12.80;94.80
814;DHT22;389;48.710;9.392;2024-03-29T20:18:19;12.80;94.90
814;DHT22;389;48.710;9.392;2024-03-29T20:20:51;12.70;94.90
814;DHT22;389;48.710;9.392;2024-03-29T20:23:18;12.80;95.50
814;DHT22;389;48.710;9.392;2024-03-29T20:25:44;12.60;95.60
814;DHT22;389;48.710;9.392;2024-03-29T20:28:10;12.60;95.70
814;DHT22;389;48.710;9.392;2024-03-29T20:30:37;12.70;95.70
814;DHT22;389;48.710;9.392;2024-03-29T20:33:06;12.50;95.90
814;DHT22;389;48.710;9.392;2024-03-29T20:35:40;12.50;96.10
814;DHT22;389;48.710;9.392;2024-03-29T20:38:07;12.40;96.20
814;DHT22;389;48.710;9.392;2024-03-29T20:40:33;12.40;96.30
814;DHT22;389;48.710;9.392;2024-03-29T20:42:58;12.40;96.30
814;DHT22;389;48.710;9.392;2024-03-29T20:45:24;12.30;96.30
814;DHT22;389;48.710;9.392;2024-03-29T20:47:49;12.40;96.40
814;DHT22;389;48.710;9.392;2024-03-29T20:50:15;12.20;96.40
814;DHT22;389;48.710;9.392;2024-03-29T20:52:40;12.20;96.40
814;DHT22;389;48.710;9.392;2024-03-29T20:55:07;12.20;96.90
814;DHT22;389;48.710;9.392;2024-03-29T20:57:36;12.20;97.00
814;DHT22;389;48.710;9.392;2024-03-29T21:00:03;12.10;97.00
814;DHT22;389;48.710;9.392;2024-03-29T21:02:31;12.10;97.10
814;DHT22;389;48.710;9.392;2024-03-29T21:05:15;12.10;97.20
814;DHT22;389;48.710;9.392;2024-03-29T21:08:03;12.00;97.20
814;DHT22;389;48.710;9.392;2024-03-29T21:10:29;12.00;97.30
814;DHT22;389;48.710;9.392;2024-03-29T21:12:55;12.00;97.50
814;DHT22;389;48.710;9.392;2024-03-29T21:15:24;12.10;97.50
814;DHT22;389;48.710;9.392;2024-03-29T21:17:51;12.00;97.50
814;DHT22;389;48.710;9.392;2024-03-29T21:20:16;11.90;98.00
814;DHT22;389;48.710;9.392;2024-03-29T21:22:43;11.90;97.80
814;DHT22;389;48.710;9.392;2024-03-29T21:25:10;11.90;97.80
814;DHT22;389;48.710;9.392;2024-03-29T21:27:38;11.90;97.90
814;DHT22;389;48.710;9.392;2024-03-29T21:30:06;11.80;97.90
814;DHT22;389;48.710;9.392;2024-03-29T21:32:33;11.80;97.90
814;DHT22;389;48.710;9.392;2024-03-29T21:34:59;11.80;98.10
814;DHT22;389;48.710;9.392;2024-03-29T21:37:25;11.70;98.10
814;DHT22;389;48.710;9.392;2024-03-29T21:39:50;11.70;98.10
814;DHT22;389;48.710;9.392;2024-03-29T21:42:16;11.60;98.10
814;DHT22;389;48.710;9.392;2024-03-29T21:44:46;11.60;98.20
814;DHT22;389;48.710;9.392;2024-03-29T21:47:13;11.50;98.20
814;DHT22;389;48.710;9.392;2024-03-29T21:49:39;11.50;98.30
814;DHT22;389;48.710;9.392;2024-03-29T21:52:04;11.40;98.20
814;DHT22;389;48.710;9.392;2024-03-29T21:54:30;11.30;98.20
814;DHT22;389;48.710;9.392;2024-03-29T21:56:56;11.20;98.80
814;DHT22;389;48.710;9.392;2024-03-29T21:59:23;11.20;98.60
814;DHT22;389;48.710;9.392;2024-03-29T22:01:48;11.20;98.80